sensor_id;sensor_type;location;lat;lon;timestamp;P1;durP1;ratioP1;P2;durP2;ratioP2
51828;SDS011;37881;48.024;8.774;2022-07-17T00:01:48;20.23;;;11.67;;
51828;SDS011;37881;48.024;8.774;2022-07-17T00:04:15;14.43;;;8.38;;
51828;SDS011;37881;48.024;8.774;2022-07-17T00:06:42;12.10;;;7.20;;
51828;SDS011;37881;48.024;8.774;2022-07-17T00:09:09;13.18;;;7.43;;
51828;SDS011;37881;48.024;8.774;2022-07-17T00:11:36;23.63;;;13.13;;
51828;SDS011;37881;48.024;8.774;2022-07-17T00:14:02;17.47;;;9.60;;
51828;SDS011;37881;48.024;8.774;2022-07-17T00:16:29;102.45;;;45.42;;
51828;SDS011;37881;48.024;8.774;2022-07-17T00:18:56;101.97;;;41.15;;
51828;SDS011;37881;48.024;8.774;2022-07-17T00:21:23;48.83;;;23.58;;
51828;SDS011;37881;48.024;8.774;2022-07-17T00:23:50;14.50;;;8.43;;
51828;SDS011;37881;48.024;8.774;2022-07-17T00:26:17;14.07;;;7.63;;
51828;SDS011;37881;48.024;8.774;2022-07-17T00:28:44;18.40;;;10.27;;
51828;SDS011;37881;48.024;8.774;2022-07-17T00:31:11;21.13;;;11.10;;
51828;SDS011;37881;48.024;8.774;2022-07-17T00:33:38;14.27;;;7.20;;
51828;SDS011;37881;48.024;8.774;2022-07-17T00:36:05;14.10;;;8.23;;
51828;SDS011;37881;48.024;8.774;2022-07-17T00:38:31;15.17;;;7.60;;
51828;SDS011;37881;48.024;8.774;2022-07-17T00:40:58;16.38;;;8.32;;
51828;SDS011;37881;48.024;8.774;2022-07-17T00:43:26;10.60;;;6.25;;
51828;SDS011;37881;48.024;8.774;2022-07-17T00:45:54;9.65;;;6.53;;
51828;SDS011;37881;48.024;8.774;2022-07-17T00:48:24;11.23;;;6.30;;
51828;SDS011;37881;48.024;8.774;2022-07-17T00:50:51;10.00;;;6.30;;
51828;SDS011;37881;48.024;8.774;2022-07-17T00:53:18;10.20;;;5.72;;
51828;SDS011;37881;48.024;8.774;2022-07-17T00:55:46;10.40;;;5.95;;
51828;SDS011;37881;48.024;8.774;2022-07-17T00:58:21;10.48;;;6.22;;
51828;SDS011;37881;48.024;8.774;2022-07-17T01:00:50;9.13;;;5.60;;
51828;SDS011;37881;48.024;8.774;2022-07-17T01:03:19;8.47;;;5.20;;
51828;SDS011;37881;48.024;8.774;2022-07-17T01:05:47;6.93;;;4.68;;
51828;SDS011;37881;48.024;8.774;2022-07-17T01:08:14;8.25;;;5.20;;
51828;SDS011;37881;48.024;8.774;2022-07-17T01:10:41;8.60;;;5.55;;
51828;SDS011;37881;48.024;8.774;2022-07-17T01:13:08;7.88;;;5.30;;
51828;SDS011;37881;48.024;8.774;2022-07-17T01:15:36;9.50;;;6.20;;
51828;SDS011;37881;48.024;8.774;2022-07-17T01:18:08;10.32;;;5.90;;
51828;SDS011;37881;48.024;8.774;2022-07-17T01:20:37;8.77;;;4.82;;
51828;SDS011;37881;48.024;8.774;2022-07-17T01:23:05;7.82;;;4.95;;
51828;SDS011;37881;48.024;8.774;2022-07-17T01:25:33;9.13;;;5.60;;
51828;SDS011;37881;48.024;8.774;2022-07-17T01:28:00;7.13;;;4.97;;
51828;SDS011;37881;48.024;8.774;2022-07-17T01:30:27;7.00;;;4.90;;
51828;SDS011;37881;48.024;8.774;2022-07-17T01:32:54;7.78;;;5.15;;
51828;SDS011;37881;48.024;8.774;2022-07-17T01:35:21;9.07;;;4.80;;
51828;SDS011;37881;48.024;8.774;2022-07-17T01:37:48;7.95;;;4.60;;
51828;SDS011;37881;48.024;8.774;2022-07-17T01:40:16;8.13;;;4.47;;
51828;SDS011;37881;48.024;8.774;2022-07-17T01:42:45;8.93;;;5.72;;
51828;SDS011;37881;48.024;8.774;2022-07-17T01:45:14;7.97;;;4.70;;
51828;SDS011;37881;48.024;8.774;2022-07-17T01:47:42;7.82;;;4.50;;
51828;SDS011;37881;48.024;8.774;2022-07-17T01:50:10;8.10;;;4.90;;
51828;SDS011;37881;48.024;8.774;2022-07-17T01:52:38;6.57;;;4.33;;
51828;SDS011;37881;48.024;8.774;2022-07-17T01:55:06;6.30;;;4.30;;
51828;SDS011;37881;48.024;8.774;2022-07-17T01:57:35;7.15;;;4.82;;
51828;SDS011;37881;48.024;8.774;2022-07-17T02:00:06;6.70;;;4.78;;
51828;SDS011;37881;48.024;8.774;2022-07-17T02:02:35;7.47;;;4.53;;
51828;SDS011;37881;48.024;8.774;2022-07-17T02:05:02;9.23;;;4.40;;
51828;SDS011;37881;48.024;8.774;2022-07-17T02:07:30;6.90;;;4.60;;
51828;SDS011;37881;48.024;8.774;2022-07-17T02:09:57;8.38;;;4.20;;
51828;SDS011;37881;48.024;8.774;2022-07-17T02:12:24;6.85;;;4.53;;
51828;SDS011;37881;48.024;8.774;2022-07-17T02:14:51;6.30;;;4.10;;
51828;SDS011;37881;48.024;8.774;2022-07-17T02:17:18;7.07;;;4.67;;
51828;SDS011;37881;48.024;8.774;2022-07-17T02:19:44;15.00;;;8.48;;
51828;SDS011;37881;48.024;8.774;2022-07-17T02:22:11;7.40;;;4.80;;
51828;SDS011;37881;48.024;8.774;2022-07-17T02:24:38;8.43;;;4.80;;
51828;SDS011;37881;48.024;8.774;2022-07-17T02:27:05;7.47;;;4.53;;
51828;SDS011;37881;48.024;8.774;2022-07-17T02:29:31;6.50;;;4.67;;
51828;SDS011;37881;48.024;8.774;2022-07-17T02:31:58;7.38;;;4.47;;
51828;SDS011;37881;48.024;8.774;2022-07-17T02:34:25;9.23;;;4.57;;
51828;SDS011;37881;48.024;8.774;2022-07-17T02:36:52;6.65;;;4.50;;
51828;SDS011;37881;48.024;8.774;2022-07-17T02:39:19;5.75;;;4.20;;
51828;SDS011;37881;48.024;8.774;2022-07-17T02:41:45;8.27;;;4.53;;
51828;SDS011;37881;48.024;8.774;2022-07-17T02:44:12;7.22;;;4.72;;
51828;SDS011;37881;48.024;8.774;2022-07-17T02:46:39;7.85;;;4.80;;
51828;SDS011;37881;48.024;8.774;2022-07-17T02:49:05;6.57;;;4.28;;
51828;SDS011;37881;48.024;8.774;2022-07-17T02:51:32;6.80;;;4.50;;
51828;SDS011;37881;48.024;8.774;2022-07-17T02:53:59;7.50;;;4.40;;
51828;SDS011;37881;48.024;8.774;2022-07-17T02:56:26;6.15;;;4.20;;
51828;SDS011;37881;48.024;8.774;2022-07-17T02:58:52;6.03;;;4.18;;
51828;SDS011;37881;48.024;8.774;2022-07-17T03:01:19;6.82;;;4.35;;
51828;SDS011;37881;48.024;8.774;2022-07-17T03:03:47;6.28;;;4.47;;
51828;SDS011;37881;48.024;8.774;2022-07-17T03:06:14;6.27;;;4.27;;
51828;SDS011;37881;48.024;8.774;2022-07-17T03:08:40;5.45;;;4.10;;
51828;SDS011;37881;48.024;8.774;2022-07-17T03:11:07;6.20;;;4.20;;
51828;SDS011;37881;48.024;8.774;2022-07-17T03:13:34;6.65;;;4.00;;
51828;SDS011;37881;48.024;8.774;2022-07-17T03:16:02;7.40;;;4.60;;
51828;SDS011;37881;48.024;8.774;2022-07-17T03:18:30;6.90;;;4.07;;
51828;SDS011;37881;48.024;8.774;2022-07-17T03:20:57;6.57;;;4.53;;
51828;SDS011;37881;48.024;8.774;2022-07-17T03:23:23;9.07;;;4.40;;
51828;SDS011;37881;48.024;8.774;2022-07-17T03:25:50;6.93;;;4.30;;
51828;SDS011;37881;48.024;8.774;2022-07-17T03:28:17;7.47;;;4.35;;
51828;SDS011;37881;48.024;8.774;2022-07-17T03:30:43;6.00;;;4.03;;
51828;SDS011;37881;48.024;8.774;2022-07-17T03:33:10;8.48;;;4.63;;
51828;SDS011;37881;48.024;8.774;2022-07-17T03:35:37;6.00;;;4.00;;
51828;SDS011;37881;48.024;8.774;2022-07-17T03:38:03;6.80;;;4.50;;
51828;SDS011;37881;48.024;8.774;2022-07-17T03:40:30;6.22;;;4.22;;
51828;SDS011;37881;48.024;8.774;2022-07-17T03:42:57;5.60;;;4.07;;
51828;SDS011;37881;48.024;8.774;2022-07-17T03:45:24;6.85;;;4.60;;
51828;SDS011;37881;48.024;8.774;2022-07-17T03:47:51;7.32;;;4.53;;
51828;SDS011;37881;48.024;8.774;2022-07-17T03:50:18;6.80;;;4.85;;
51828;SDS011;37881;48.024;8.774;2022-07-17T03:52:44;7.03;;;4.20;;
51828;SDS011;37881;48.024;8.774;2022-07-17T03:55:11;5.80;;;4.00;;
51828;SDS011;37881;48.024;8.774;2022-07-17T03:57:38;6.68;;;4.82;;
51828;SDS011;37881;48.024;8.774;2022-07-17T04:00:05;6.32;;;4.47;;
51828;SDS011;37881;48.024;8.774;2022-07-17T04:02:32;6.72;;;4.30;;
51828;SDS011;37881;48.024;8.774;2022-07-17T04:04:59;7.18;;;4.30;;
51828;SDS011;37881;48.024;8.774;2022-07-17T04:07:25;6.43;;;4.27;;
51828;SDS011;37881;48.024;8.774;2022-07-17T04:09:56;7.03;;;4.45;;
51828;SDS011;37881;48.024;8.774;2022-07-17T04:12:24;7.25;;;4.55;;
51828;SDS011;37881;48.024;8.774;2022-07-17T04:14:51;7.38;;;4.35;;
51828;SDS011;37881;48.024;8.774;2022-07-17T04:17:18;6.82;;;4.70;;
51828;SDS011;37881;48.024;8.774;2022-07-17T04:19:45;6.80;;;4.87;;
51828;SDS011;37881;48.024;8.774;2022-07-17T04:22:12;6.57;;;4.65;;
51828;SDS011;37881;48.024;8.774;2022-07-17T04:24:39;6.22;;;4.25;;
51828;SDS011;37881;48.024;8.774;2022-07-17T04:27:06;8.02;;;4.40;;
51828;SDS011;37881;48.024;8.774;2022-07-17T04:29:33;6.90;;;4.70;;
51828;SDS011;37881;48.024;8.774;2022-07-17T04:32:02;7.03;;;4.53;;
51828;SDS011;37881;48.024;8.774;2022-07-17T04:34:29;6.40;;;4.70;;
51828;SDS011;37881;48.024;8.774;2022-07-17T04:36:58;6.43;;;4.57;;
51828;SDS011;37881;48.024;8.774;2022-07-17T04:39:25;6.75;;;4.47;;
51828;SDS011;37881;48.024;8.774;2022-07-17T04:41:52;7.45;;;4.57;;
51828;SDS011;37881;48.024;8.774;2022-07-17T04:44:19;6.63;;;4.57;;
51828;SDS011;37881;48.024;8.774;2022-07-17T04:46:46;6.55;;;4.70;;
51828;SDS011;37881;48.024;8.774;2022-07-17T04:49:13;6.78;;;4.38;;
51828;SDS011;37881;48.024;8.774;2022-07-17T04:51:40;7.97;;;4.60;;
51828;SDS011;37881;48.024;8.774;2022-07-17T04:54:07;6.88;;;4.78;;
51828;SDS011;37881;48.024;8.774;2022-07-17T04:56:34;8.60;;;4.70;;
51828;SDS011;37881;48.024;8.774;2022-07-17T04:59:00;6.80;;;4.60;;
51828;SDS011;37881;48.024;8.774;2022-07-17T05:01:27;7.68;;;4.40;;
51828;SDS011;37881;48.024;8.774;2022-07-17T05:03:54;7.13;;;4.60;;
51828;SDS011;37881;48.024;8.774;2022-07-17T05:06:21;7.18;;;4.40;;
51828;SDS011;37881;48.024;8.774;2022-07-17T05:08:48;6.93;;;4.50;;
51828;SDS011;37881;48.024;8.774;2022-07-17T05:11:14;7.93;;;4.80;;
51828;SDS011;37881;48.024;8.774;2022-07-17T05:13:41;6.65;;;4.80;;
51828;SDS011;37881;48.024;8.774;2022-07-17T05:16:08;7.55;;;4.43;;
51828;SDS011;37881;48.024;8.774;2022-07-17T05:18:35;8.20;;;4.68;;
51828;SDS011;37881;48.024;8.774;2022-07-17T05:21:01;6.50;;;4.80;;
51828;SDS011;37881;48.024;8.774;2022-07-17T05:23:28;8.45;;;5.00;;
51828;SDS011;37881;48.024;8.774;2022-07-17T05:25:55;6.90;;;4.55;;
51828;SDS011;37881;48.024;8.774;2022-07-17T05:28:22;7.60;;;5.07;;
51828;SDS011;37881;48.024;8.774;2022-07-17T05:30:49;8.93;;;4.72;;
51828;SDS011;37881;48.024;8.774;2022-07-17T05:33:15;6.00;;;4.60;;
51828;SDS011;37881;48.024;8.774;2022-07-17T05:35:42;6.63;;;4.72;;
51828;SDS011;37881;48.024;8.774;2022-07-17T05:38:09;6.00;;;4.30;;
51828;SDS011;37881;48.024;8.774;2022-07-17T05:40:36;5.43;;;4.10;;
51828;SDS011;37881;48.024;8.774;2022-07-17T05:43:03;4.85;;;3.88;;
51828;SDS011;37881;48.024;8.774;2022-07-17T05:45:30;5.63;;;3.43;;
51828;SDS011;37881;48.024;8.774;2022-07-17T05:47:57;5.85;;;4.05;;
51828;SDS011;37881;48.024;8.774;2022-07-17T05:50:23;5.90;;;4.03;;
51828;SDS011;37881;48.024;8.774;2022-07-17T05:52:50;6.22;;;4.30;;
51828;SDS011;37881;48.024;8.774;2022-07-17T05:55:17;4.65;;;3.92;;
51828;SDS011;37881;48.024;8.774;2022-07-17T05:57:45;5.83;;;3.70;;
51828;SDS011;37881;48.024;8.774;2022-07-17T06:00:11;4.55;;;3.70;;
51828;SDS011;37881;48.024;8.774;2022-07-17T06:02:38;6.97;;;3.90;;
51828;SDS011;37881;48.024;8.774;2022-07-17T06:05:06;5.75;;;3.70;;
51828;SDS011;37881;48.024;8.774;2022-07-17T06:07:33;5.75;;;3.67;;
51828;SDS011;37881;48.024;8.774;2022-07-17T06:10:00;6.17;;;3.77;;
51828;SDS011;37881;48.024;8.774;2022-07-17T06:12:26;4.25;;;3.50;;
51828;SDS011;37881;48.024;8.774;2022-07-17T06:14:53;4.20;;;3.25;;
51828;SDS011;37881;48.024;8.774;2022-07-17T06:17:20;4.07;;;3.33;;
51828;SDS011;37881;48.024;8.774;2022-07-17T06:19:46;3.80;;;3.03;;
51828;SDS011;37881;48.024;8.774;2022-07-17T06:22:18;5.10;;;3.40;;
51828;SDS011;37881;48.024;8.774;2022-07-17T06:24:45;5.15;;;3.10;;
51828;SDS011;37881;48.024;8.774;2022-07-17T06:27:13;4.28;;;3.30;;
51828;SDS011;37881;48.024;8.774;2022-07-17T06:29:40;4.15;;;3.22;;
51828;SDS011;37881;48.024;8.774;2022-07-17T06:32:17;4.07;;;3.00;;
51828;SDS011;37881;48.024;8.774;2022-07-17T06:34:43;4.57;;;3.07;;
51828;SDS011;37881;48.024;8.774;2022-07-17T06:37:10;4.72;;;3.30;;
51828;SDS011;37881;48.024;8.774;2022-07-17T06:39:37;5.25;;;3.00;;
51828;SDS011;37881;48.024;8.774;2022-07-17T06:42:04;4.13;;;2.90;;
51828;SDS011;37881;48.024;8.774;2022-07-17T06:44:30;4.22;;;3.00;;
51828;SDS011;37881;48.024;8.774;2022-07-17T06:46:57;4.90;;;2.80;;
51828;SDS011;37881;48.024;8.774;2022-07-17T06:49:24;3.80;;;2.88;;
51828;SDS011;37881;48.024;8.774;2022-07-17T06:51:51;4.45;;;2.78;;
51828;SDS011;37881;48.024;8.774;2022-07-17T06:54:18;5.15;;;2.72;;
51828;SDS011;37881;48.024;8.774;2022-07-17T06:56:44;4.63;;;2.53;;
51828;SDS011;37881;48.024;8.774;2022-07-17T06:59:11;5.23;;;2.47;;
51828;SDS011;37881;48.024;8.774;2022-07-17T07:01:38;3.83;;;2.70;;
51828;SDS011;37881;48.024;8.774;2022-07-17T07:04:07;3.85;;;2.45;;
51828;SDS011;37881;48.024;8.774;2022-07-17T07:06:34;4.05;;;2.67;;
51828;SDS011;37881;48.024;8.774;2022-07-17T07:09:00;5.78;;;2.50;;
51828;SDS011;37881;48.024;8.774;2022-07-17T07:11:28;6.33;;;2.80;;
51828;SDS011;37881;48.024;8.774;2022-07-17T07:13:55;5.10;;;2.70;;
51828;SDS011;37881;48.024;8.774;2022-07-17T07:16:22;4.75;;;2.95;;
51828;SDS011;37881;48.024;8.774;2022-07-17T07:18:48;3.88;;;2.70;;
51828;SDS011;37881;48.024;8.774;2022-07-17T07:21:15;4.88;;;2.70;;
51828;SDS011;37881;48.024;8.774;2022-07-17T07:23:42;3.87;;;2.70;;
51828;SDS011;37881;48.024;8.774;2022-07-17T07:26:09;3.85;;;2.70;;
51828;SDS011;37881;48.024;8.774;2022-07-17T07:28:35;4.55;;;2.40;;
51828;SDS011;37881;48.024;8.774;2022-07-17T07:31:02;3.85;;;2.70;;
51828;SDS011;37881;48.024;8.774;2022-07-17T07:33:29;4.10;;;3.00;;
51828;SDS011;37881;48.024;8.774;2022-07-17T07:35:56;4.60;;;2.93;;
51828;SDS011;37881;48.024;8.774;2022-07-17T07:38:23;3.72;;;2.85;;
51828;SDS011;37881;48.024;8.774;2022-07-17T07:40:50;4.45;;;2.70;;
51828;SDS011;37881;48.024;8.774;2022-07-17T07:43:16;5.65;;;2.80;;
51828;SDS011;37881;48.024;8.774;2022-07-17T07:45:43;4.15;;;3.10;;
51828;SDS011;37881;48.024;8.774;2022-07-17T07:48:10;5.53;;;2.90;;
51828;SDS011;37881;48.024;8.774;2022-07-17T07:50:38;4.07;;;2.70;;
51828;SDS011;37881;48.024;8.774;2022-07-17T07:53:05;4.00;;;2.70;;
51828;SDS011;37881;48.024;8.774;2022-07-17T07:55:32;4.85;;;3.00;;
51828;SDS011;37881;48.024;8.774;2022-07-17T07:58:03;4.22;;;2.60;;
51828;SDS011;37881;48.024;8.774;2022-07-17T08:00:31;6.63;;;2.60;;
51828;SDS011;37881;48.024;8.774;2022-07-17T08:02:59;4.07;;;2.70;;
51828;SDS011;37881;48.024;8.774;2022-07-17T08:05:26;5.65;;;2.70;;
51828;SDS011;37881;48.024;8.774;2022-07-17T08:07:53;4.57;;;2.40;;
51828;SDS011;37881;48.024;8.774;2022-07-17T08:10:19;3.58;;;2.30;;
51828;SDS011;37881;48.024;8.774;2022-07-17T08:12:46;6.47;;;2.57;;
51828;SDS011;37881;48.024;8.774;2022-07-17T08:15:14;4.57;;;2.83;;
51828;SDS011;37881;48.024;8.774;2022-07-17T08:17:43;8.20;;;2.70;;
51828;SDS011;37881;48.024;8.774;2022-07-17T08:20:11;4.68;;;2.80;;
51828;SDS011;37881;48.024;8.774;2022-07-17T08:22:43;5.28;;;2.90;;
51828;SDS011;37881;48.024;8.774;2022-07-17T08:25:30;4.17;;;2.47;;
51828;SDS011;37881;48.024;8.774;2022-07-17T08:27:57;5.05;;;2.60;;
51828;SDS011;37881;48.024;8.774;2022-07-17T08:30:24;4.18;;;2.58;;
51828;SDS011;37881;48.024;8.774;2022-07-17T08:32:51;4.25;;;2.40;;
51828;SDS011;37881;48.024;8.774;2022-07-17T08:35:18;5.25;;;2.42;;
51828;SDS011;37881;48.024;8.774;2022-07-17T08:37:49;3.77;;;2.30;;
51828;SDS011;37881;48.024;8.774;2022-07-17T08:40:17;4.88;;;2.50;;
51828;SDS011;37881;48.024;8.774;2022-07-17T08:42:46;4.50;;;2.47;;
51828;SDS011;37881;48.024;8.774;2022-07-17T08:45:13;3.63;;;2.20;;
51828;SDS011;37881;48.024;8.774;2022-07-17T08:47:39;3.92;;;2.40;;
51828;SDS011;37881;48.024;8.774;2022-07-17T08:50:11;4.13;;;2.60;;
51828;SDS011;37881;48.024;8.774;2022-07-17T08:52:39;3.60;;;2.47;;
51828;SDS011;37881;48.024;8.774;2022-07-17T08:55:08;4.55;;;2.58;;
51828;SDS011;37881;48.024;8.774;2022-07-17T08:57:40;4.65;;;2.30;;
51828;SDS011;37881;48.024;8.774;2022-07-17T09:00:13;3.92;;;2.40;;
51828;SDS011;37881;48.024;8.774;2022-07-17T09:05:34;4.85;;;2.35;;
51828;SDS011;37881;48.024;8.774;2022-07-17T09:08:04;4.07;;;2.45;;
51828;SDS011;37881;48.024;8.774;2022-07-17T09:13:13;4.10;;;2.40;;
51828;SDS011;37881;48.024;8.774;2022-07-17T09:15:50;4.80;;;2.10;;
51828;SDS011;37881;48.024;8.774;2022-07-17T09:18:19;4.53;;;2.40;;
51828;SDS011;37881;48.024;8.774;2022-07-17T09:20:47;4.38;;;2.30;;
51828;SDS011;37881;48.024;8.774;2022-07-17T09:23:20;3.55;;;2.20;;
51828;SDS011;37881;48.024;8.774;2022-07-17T09:25:49;4.10;;;2.70;;
51828;SDS011;37881;48.024;8.774;2022-07-17T09:28:19;5.90;;;2.73;;
51828;SDS011;37881;48.024;8.774;2022-07-17T09:30:48;4.07;;;2.40;;
51828;SDS011;37881;48.024;8.774;2022-07-17T09:33:17;6.38;;;2.60;;
51828;SDS011;37881;48.024;8.774;2022-07-17T09:35:51;3.10;;;2.28;;
51828;SDS011;37881;48.024;8.774;2022-07-17T09:38:29;3.83;;;2.50;;
51828;SDS011;37881;48.024;8.774;2022-07-17T09:43:43;5.30;;;2.78;;
51828;SDS011;37881;48.024;8.774;2022-07-17T09:48:54;4.57;;;2.55;;
51828;SDS011;37881;48.024;8.774;2022-07-17T09:51:33;5.30;;;2.40;;
51828;SDS011;37881;48.024;8.774;2022-07-17T09:54:02;4.50;;;2.60;;
51828;SDS011;37881;48.024;8.774;2022-07-17T09:56:32;3.50;;;2.40;;
51828;SDS011;37881;48.024;8.774;2022-07-17T10:01:31;4.90;;;2.60;;
51828;SDS011;37881;48.024;8.774;2022-07-17T10:03:59;3.83;;;2.42;;
51828;SDS011;37881;48.024;8.774;2022-07-17T10:06:27;3.73;;;2.40;;
51828;SDS011;37881;48.024;8.774;2022-07-17T10:08:54;3.60;;;2.40;;
51828;SDS011;37881;48.024;8.774;2022-07-17T10:11:23;5.47;;;2.33;;
51828;SDS011;37881;48.024;8.774;2022-07-17T10:13:52;4.88;;;2.53;;
51828;SDS011;37881;48.024;8.774;2022-07-17T10:16:25;3.97;;;2.40;;
51828;SDS011;37881;48.024;8.774;2022-07-17T10:18:54;5.90;;;2.70;;
51828;SDS011;37881;48.024;8.774;2022-07-17T10:21:24;4.35;;;2.47;;
51828;SDS011;37881;48.024;8.774;2022-07-17T10:29:08;3.95;;;2.40;;
51828;SDS011;37881;48.024;8.774;2022-07-17T10:31:51;4.37;;;2.20;;
51828;SDS011;37881;48.024;8.774;2022-07-17T10:34:21;5.20;;;2.60;;
51828;SDS011;37881;48.024;8.774;2022-07-17T10:37:13;4.30;;;2.38;;
51828;SDS011;37881;48.024;8.774;2022-07-17T10:39:51;4.18;;;2.55;;
51828;SDS011;37881;48.024;8.774;2022-07-17T10:42:38;4.75;;;2.60;;
51828;SDS011;37881;48.024;8.774;2022-07-17T10:45:15;4.47;;;2.50;;
51828;SDS011;37881;48.024;8.774;2022-07-17T10:47:54;3.38;;;2.42;;
51828;SDS011;37881;48.024;8.774;2022-07-17T10:53:07;4.30;;;2.63;;
51828;SDS011;37881;48.024;8.774;2022-07-17T10:56:00;3.40;;;2.50;;
51828;SDS011;37881;48.024;8.774;2022-07-17T10:58:41;4.63;;;2.40;;
51828;SDS011;37881;48.024;8.774;2022-07-17T11:01:10;3.50;;;2.40;;
51828;SDS011;37881;48.024;8.774;2022-07-17T11:03:42;4.20;;;2.50;;
51828;SDS011;37881;48.024;8.774;2022-07-17T11:06:13;4.20;;;2.70;;
51828;SDS011;37881;48.024;8.774;2022-07-17T11:11:18;5.43;;;2.60;;
51828;SDS011;37881;48.024;8.774;2022-07-17T11:13:55;4.00;;;2.60;;
51828;SDS011;37881;48.024;8.774;2022-07-17T11:16:33;5.03;;;2.50;;
51828;SDS011;37881;48.024;8.774;2022-07-17T11:19:00;5.45;;;3.00;;
51828;SDS011;37881;48.024;8.774;2022-07-17T11:21:27;5.35;;;3.20;;
51828;SDS011;37881;48.024;8.774;2022-07-17T11:23:55;3.90;;;2.80;;
51828;SDS011;37881;48.024;8.774;2022-07-17T11:26:23;6.82;;;4.95;;
51828;SDS011;37881;48.024;8.774;2022-07-17T11:28:51;4.30;;;3.00;;
51828;SDS011;37881;48.024;8.774;2022-07-17T11:31:26;6.20;;;3.20;;
51828;SDS011;37881;48.024;8.774;2022-07-17T11:36:27;4.47;;;2.67;;
51828;SDS011;37881;48.024;8.774;2022-07-17T11:41:43;4.07;;;2.80;;
51828;SDS011;37881;48.024;8.774;2022-07-17T11:44:17;5.65;;;2.90;;
51828;SDS011;37881;48.024;8.774;2022-07-17T11:46:46;4.15;;;2.88;;
51828;SDS011;37881;48.024;8.774;2022-07-17T11:49:30;5.30;;;2.83;;
51828;SDS011;37881;48.024;8.774;2022-07-17T11:57:13;4.53;;;2.92;;
51828;SDS011;37881;48.024;8.774;2022-07-17T11:59:40;4.55;;;3.00;;
51828;SDS011;37881;48.024;8.774;2022-07-17T12:02:17;4.77;;;2.90;;
51828;SDS011;37881;48.024;8.774;2022-07-17T12:04:48;4.65;;;2.80;;
51828;SDS011;37881;48.024;8.774;2022-07-17T12:07:19;3.90;;;2.70;;
51828;SDS011;37881;48.024;8.774;2022-07-17T12:09:47;4.63;;;2.45;;
51828;SDS011;37881;48.024;8.774;2022-07-17T12:12:26;5.20;;;2.88;;
51828;SDS011;37881;48.024;8.774;2022-07-17T12:14:55;3.80;;;2.80;;
51828;SDS011;37881;48.024;8.774;2022-07-17T12:17:37;4.28;;;2.80;;
51828;SDS011;37881;48.024;8.774;2022-07-17T12:20:05;5.57;;;2.83;;
51828;SDS011;37881;48.024;8.774;2022-07-17T12:22:44;5.80;;;4.10;;
51828;SDS011;37881;48.024;8.774;2022-07-17T12:25:24;6.43;;;3.45;;
51828;SDS011;37881;48.024;8.774;2022-07-17T12:27:52;5.30;;;3.10;;
51828;SDS011;37881;48.024;8.774;2022-07-17T12:30:19;6.05;;;4.10;;
51828;SDS011;37881;48.024;8.774;2022-07-17T12:32:47;4.50;;;3.40;;
51828;SDS011;37881;48.024;8.774;2022-07-17T12:35:14;4.43;;;3.10;;
51828;SDS011;37881;48.024;8.774;2022-07-17T12:37:42;6.40;;;3.50;;
51828;SDS011;37881;48.024;8.774;2022-07-17T12:40:10;5.23;;;3.30;;
51828;SDS011;37881;48.024;8.774;2022-07-17T12:42:42;4.72;;;3.47;;
51828;SDS011;37881;48.024;8.774;2022-07-17T12:45:09;5.32;;;3.20;;
51828;SDS011;37881;48.024;8.774;2022-07-17T12:47:36;7.65;;;3.40;;
51828;SDS011;37881;48.024;8.774;2022-07-17T12:50:03;4.25;;;3.20;;
51828;SDS011;37881;48.024;8.774;2022-07-17T12:52:31;6.27;;;3.60;;
51828;SDS011;37881;48.024;8.774;2022-07-17T12:54:57;6.05;;;3.50;;
51828;SDS011;37881;48.024;8.774;2022-07-17T12:57:24;6.78;;;3.55;;
51828;SDS011;37881;48.024;8.774;2022-07-17T12:59:51;4.72;;;3.40;;
51828;SDS011;37881;48.024;8.774;2022-07-17T13:02:18;5.50;;;3.45;;
51828;SDS011;37881;48.024;8.774;2022-07-17T13:04:45;5.90;;;3.23;;
51828;SDS011;37881;48.024;8.774;2022-07-17T13:07:12;4.13;;;3.15;;
51828;SDS011;37881;48.024;8.774;2022-07-17T13:09:39;4.90;;;3.30;;
51828;SDS011;37881;48.024;8.774;2022-07-17T13:12:05;4.72;;;3.53;;
51828;SDS011;37881;48.024;8.774;2022-07-17T13:14:32;4.63;;;3.40;;
51828;SDS011;37881;48.024;8.774;2022-07-17T13:16:59;5.80;;;3.30;;
51828;SDS011;37881;48.024;8.774;2022-07-17T13:19:27;5.95;;;3.30;;
51828;SDS011;37881;48.024;8.774;2022-07-17T13:21:54;6.28;;;3.40;;
51828;SDS011;37881;48.024;8.774;2022-07-17T13:24:21;4.60;;;3.45;;
51828;SDS011;37881;48.024;8.774;2022-07-17T13:26:48;4.78;;;3.47;;
51828;SDS011;37881;48.024;8.774;2022-07-17T13:29:14;5.10;;;3.50;;
51828;SDS011;37881;48.024;8.774;2022-07-17T13:31:41;7.40;;;3.30;;
51828;SDS011;37881;48.024;8.774;2022-07-17T13:34:09;5.57;;;3.30;;
51828;SDS011;37881;48.024;8.774;2022-07-17T13:36:36;4.80;;;3.40;;
51828;SDS011;37881;48.024;8.774;2022-07-17T13:39:02;4.97;;;3.10;;
51828;SDS011;37881;48.024;8.774;2022-07-17T13:41:30;4.70;;;3.50;;
51828;SDS011;37881;48.024;8.774;2022-07-17T13:43:57;5.80;;;3.20;;
51828;SDS011;37881;48.024;8.774;2022-07-17T13:46:33;4.68;;;3.13;;
51828;SDS011;37881;48.024;8.774;2022-07-17T13:49:01;5.65;;;3.30;;
51828;SDS011;37881;48.024;8.774;2022-07-17T13:51:28;4.43;;;3.30;;
51828;SDS011;37881;48.024;8.774;2022-07-17T13:53:56;4.07;;;3.00;;
51828;SDS011;37881;48.024;8.774;2022-07-17T13:56:25;4.80;;;3.20;;
51828;SDS011;37881;48.024;8.774;2022-07-17T13:58:52;4.63;;;3.20;;
51828;SDS011;37881;48.024;8.774;2022-07-17T14:01:19;6.88;;;3.38;;
51828;SDS011;37881;48.024;8.774;2022-07-17T14:03:48;4.90;;;3.05;;
51828;SDS011;37881;48.024;8.774;2022-07-17T14:06:16;4.30;;;3.23;;
51828;SDS011;37881;48.024;8.774;2022-07-17T14:08:43;4.82;;;3.25;;
51828;SDS011;37881;48.024;8.774;2022-07-17T14:11:11;5.30;;;3.42;;
51828;SDS011;37881;48.024;8.774;2022-07-17T14:13:38;4.50;;;3.25;;
51828;SDS011;37881;48.024;8.774;2022-07-17T14:16:13;4.25;;;3.10;;
51828;SDS011;37881;48.024;8.774;2022-07-17T14:18:40;5.03;;;3.37;;
51828;SDS011;37881;48.024;8.774;2022-07-17T14:21:31;5.28;;;3.50;;
51828;SDS011;37881;48.024;8.774;2022-07-17T14:24:00;4.38;;;3.22;;
51828;SDS011;37881;48.024;8.774;2022-07-17T14:26:28;5.10;;;3.30;;
51828;SDS011;37881;48.024;8.774;2022-07-17T14:28:55;5.65;;;3.15;;
51828;SDS011;37881;48.024;8.774;2022-07-17T14:31:23;4.27;;;3.20;;
51828;SDS011;37881;48.024;8.774;2022-07-17T14:33:51;4.38;;;3.50;;
51828;SDS011;37881;48.024;8.774;2022-07-17T14:36:18;5.47;;;3.45;;
51828;SDS011;37881;48.024;8.774;2022-07-17T14:38:45;5.75;;;3.30;;
51828;SDS011;37881;48.024;8.774;2022-07-17T14:41:12;4.68;;;3.38;;
51828;SDS011;37881;48.024;8.774;2022-07-17T14:43:39;4.47;;;3.40;;
51828;SDS011;37881;48.024;8.774;2022-07-17T14:46:09;6.03;;;3.40;;
51828;SDS011;37881;48.024;8.774;2022-07-17T14:48:36;7.20;;;3.50;;
51828;SDS011;37881;48.024;8.774;2022-07-17T14:51:04;5.53;;;3.40;;
51828;SDS011;37881;48.024;8.774;2022-07-17T14:53:31;5.25;;;3.30;;
51828;SDS011;37881;48.024;8.774;2022-07-17T14:55:58;6.43;;;3.30;;
51828;SDS011;37881;48.024;8.774;2022-07-17T14:58:25;4.28;;;3.05;;
51828;SDS011;37881;48.024;8.774;2022-07-17T15:00:52;5.10;;;3.92;;
51828;SDS011;37881;48.024;8.774;2022-07-17T15:03:19;5.13;;;3.60;;
51828;SDS011;37881;48.024;8.774;2022-07-17T15:05:46;4.72;;;3.30;;
51828;SDS011;37881;48.024;8.774;2022-07-17T15:08:12;5.03;;;3.40;;
51828;SDS011;37881;48.024;8.774;2022-07-17T15:10:39;4.68;;;3.13;;
51828;SDS011;37881;48.024;8.774;2022-07-17T15:13:06;4.38;;;3.13;;
51828;SDS011;37881;48.024;8.774;2022-07-17T15:15:33;4.20;;;3.10;;
51828;SDS011;37881;48.024;8.774;2022-07-17T15:18:00;4.25;;;3.35;;
51828;SDS011;37881;48.024;8.774;2022-07-17T15:20:27;5.00;;;3.10;;
51828;SDS011;37881;48.024;8.774;2022-07-17T15:22:54;6.43;;;3.20;;
51828;SDS011;37881;48.024;8.774;2022-07-17T15:25:21;4.20;;;3.20;;
51828;SDS011;37881;48.024;8.774;2022-07-17T15:27:49;4.30;;;3.10;;